sensor_id;sensor_type;location;lat;lon;timestamp;pressure;altitude;pressure_sealevel;temperature;humidity
9695;BME280;4690;52.422;13.486;2023-04-03T00:04:24;102743.75;;;2.53;70.38
9695;BME280;4690;52.422;13.486;2023-04-03T00:06:50;102747.31;;;2.53;69.26
9695;BME280;4690;52.422;13.486;2023-04-03T00:09:15;102743.06;;;2.39;69.87
9695;BME280;4690;52.422;13.486;2023-04-03T00:11:41;102752.03;;;2.40;69.71
9695;BME280;4690;52.422;13.486;2023-04-03T00:14:07;102745.50;;;2.42;69.94
9695;BME280;4690;52.422;13.486;2023-04-03T00:16:32;102747.97;;;2.34;69.81
9695;BME280;4690;52.422;13.486;2023-04-03T00:18:58;102744.53;;;2.32;69.98
9695;BME280;4690;52.422;13.486;2023-04-03T00:21:24;102749.69;;;2.35;70.31
9695;BME280;4690;52.422;13.486;2023-04-03T00:23:50;102752.03;;;2.40;69.73
9695;BME280;4690;52.422;13.486;2023-04-03T00:26:16;102751.16;;;2.39;69.41
9695;BME280;4690;52.422;13.486;2023-04-03T00:28:42;102752.88;;;2.40;69.43
9695;BME280;4690;52.422;13.486;2023-04-03T00:31:08;102753.63;;;2.42;69.16
9695;BME280;4690;52.422;13.486;2023-04-03T00:33:33;102756.09;;;2.45;70.06
9695;BME280;4690;52.422;13.486;2023-04-03T00:35:59;102769.72;;;2.44;69.60
9695;BME280;4690;52.422;13.486;2023-04-03T00:38:25;102762.59;;;2.43;69.59
9695;BME280;4690;52.422;13.486;2023-04-03T00:40:50;102750.91;;;2.42;69.08
9695;BME280;4690;52.422;13.486;2023-04-03T00:43:24;102765.41;;;2.41;68.89
9695;BME280;4690;52.422;13.486;2023-04-03T00:45:57;102756.19;;;2.44;68.90
9695;BME280;4690;52.422;13.486;2023-04-03T00:48:32;102761.09;;;2.39;69.83
9695;BME280;4690;52.422;13.486;2023-04-03T00:51:00;102760.13;;;2.40;68.70
9695;BME280;4690;52.422;13.486;2023-04-03T00:54:00;102754.47;;;2.43;68.77
9695;BME280;4690;52.422;13.486;2023-04-03T00:56:28;102757.69;;;2.37;68.63
9695;BME280;4690;52.422;13.486;2023-04-03T00:59:08;102749.44;;;2.38;68.84
9695;BME280;4690;52.422;13.486;2023-04-03T01:01:37;102760.84;;;2.42;69.00
9695;BME280;4690;52.422;13.486;2023-04-03T01:04:05;102755.09;;;2.35;68.60
9695;BME280;4690;52.422;13.486;2023-04-03T01:06:37;102755.44;;;2.31;69.24
9695;BME280;4690;52.422;13.486;2023-04-03T01:09:04;102758.03;;;2.32;68.87
9695;BME280;4690;52.422;13.486;2023-04-03T01:11:30;102761.75;;;2.31;68.63
9695;BME280;4690;52.422;13.486;2023-04-03T01:13:56;102762.22;;;2.36;68.87
9695;BME280;4690;52.422;13.486;2023-04-03T01:16:22;102765.91;;;2.35;68.32
9695;BME280;4690;52.422;13.486;2023-04-03T01:18:48;102765.41;;;2.41;68.60
9695;BME280;4690;52.422;13.486;2023-04-03T01:21:46;102764.19;;;2.23;68.62
9695;BME280;4690;52.422;13.486;2023-04-03T01:24:36;102768.63;;;2.24;69.12
9695;BME280;4690;52.422;13.486;2023-04-03T01:27:07;102761.09;;;2.28;69.24
9695;BME280;4690;52.422;13.486;2023-04-03T01:29:35;102764.56;;;2.30;69.79
9695;BME280;4690;52.422;13.486;2023-04-03T01:32:02;102762.72;;;2.30;69.05
9695;BME280;4690;52.422;13.486;2023-04-03T01:34:30;102767.88;;;2.33;69.23
9695;BME280;4690;52.422;13.486;2023-04-03T01:36:56;102767.50;;;2.38;68.60
9695;BME280;4690;52.422;13.486;2023-04-03T01:39:22;102770.09;;;2.39;69.26
9695;BME280;4690;52.422;13.486;2023-04-03T01:41:48;102763.34;;;2.34;69.35
9695;BME280;4690;52.422;13.486;2023-04-03T01:44:15;102763.09;;;2.26;69.79
9695;BME280;4690;52.422;13.486;2023-04-03T01:46:41;102767.75;;;2.23;69.42
9695;BME280;4690;52.422;13.486;2023-04-03T01:49:08;102765.66;;;2.16;69.52
9695;BME280;4690;52.422;13.486;2023-04-03T01:51:33;102767.84;;;2.11;70.57
9695;BME280;4690;52.422;13.486;2023-04-03T01:53:59;102767.13;;;2.09;70.88
9695;BME280;4690;52.422;13.486;2023-04-03T01:56:25;102771.06;;;2.05;70.79
9695;BME280;4690;52.422;13.486;2023-04-03T01:58:52;102771.88;;;1.94;70.93
9695;BME280;4690;52.422;13.486;2023-04-03T02:01:17;102774.31;;;1.86;71.40
9695;BME280;4690;52.422;13.486;2023-04-03T02:03:43;102780.47;;;1.88;71.90
9695;BME280;4690;52.422;13.486;2023-04-03T02:06:09;102782.09;;;1.90;71.71
9695;BME280;4690;52.422;13.486;2023-04-03T02:08:35;102788.72;;;1.86;71.88
9695;BME280;4690;52.422;13.486;2023-04-03T02:11:01;102785.13;;;1.86;72.14
9695;BME280;4690;52.422;13.486;2023-04-03T02:13:27;102787.97;;;1.84;71.50
9695;BME280;4690;52.422;13.486;2023-04-03T02:15:52;102782.94;;;1.91;71.61
9695;BME280;4690;52.422;13.486;2023-04-03T02:18:18;102778.28;;;1.93;71.42
9695;BME280;4690;52.422;13.486;2023-04-03T02:20:46;102777.06;;;1.97;71.76
9695;BME280;4690;52.422;13.486;2023-04-03T02:23:11;102781.00;;;1.93;71.04
9695;BME280;4690;52.422;13.486;2023-04-03T02:25:37;102779.03;;;1.95;71.74
9695;BME280;4690;52.422;13.486;2023-04-03T02:28:03;102792.66;;;1.93;71.57
9695;BME280;4690;52.422;13.486;2023-04-03T02:30:29;102784.69;;;1.92;71.74
9695;BME280;4690;52.422;13.486;2023-04-03T02:32:55;102783.56;;;1.83;71.61
9695;BME280;4690;52.422;13.486;2023-04-03T02:35:21;102794.38;;;1.83;72.17
9695;BME280;4690;52.422;13.486;2023-04-03T02:37:47;102792.41;;;1.85;71.57
9695;BME280;4690;52.422;13.486;2023-04-03T02:40:13;102795.34;;;1.82;72.23
9695;BME280;4690;52.422;13.486;2023-04-03T02:42:39;102805.91;;;1.85;72.21
9695;BME280;4690;52.422;13.486;2023-04-03T02:45:05;102813.06;;;1.86;71.69
9695;BME280;4690;52.422;13.486;2023-04-03T02:47:31;102811.56;;;1.82;72.56
9695;BME280;4690;52.422;13.486;2023-04-03T02:49:57;102820.66;;;1.81;72.46
9695;BME280;4690;52.422;13.486;2023-04-03T02:52:23;102817.47;;;1.87;72.33
9695;BME280;4690;52.422;13.486;2023-04-03T02:54:48;102818.31;;;1.88;71.67
9695;BME280;4690;52.422;13.486;2023-04-03T02:57:14;102816.22;;;1.80;72.64
9695;BME280;4690;52.422;13.486;2023-04-03T02:59:40;102826.81;;;1.83;72.64
9695;BME280;4690;52.422;13.486;2023-04-03T03:02:10;102816.97;;;1.82;72.50
9695;BME280;4690;52.422;13.486;2023-04-03T03:04:36;102821.63;;;1.80;72.04
9695;BME280;4690;52.422;13.486;2023-04-03T03:07:03;102821.28;;;1.85;72.79
9695;BME280;4690;52.422;13.486;2023-04-03T03:09:29;102817.81;;;1.83;72.71
9695;BME280;4690;52.422;13.486;2023-04-03T03:11:56;102821.63;;;1.80;72.69
9695;BME280;4690;52.422;13.486;2023-04-03T03:14:22;102824.31;;;1.80;72.63
9695;BME280;4690;52.422;13.486;2023-04-03T03:16:48;102817.19;;;1.79;72.78
9695;BME280;4690;52.422;13.486;2023-04-03T03:19:14;102825.56;;;1.76;72.28
9695;BME280;4690;52.422;13.486;2023-04-03T03:21:40;102833.91;;;1.73;72.61
9695;BME280;4690;52.422;13.486;2023-04-03T03:24:06;102821.56;;;1.69;73.73
9695;BME280;4690;52.422;13.486;2023-04-03T03:26:32;102831.81;;;1.76;73.32
9695;BME280;4690;52.422;13.486;2023-04-03T03:28:58;102831.94;;;1.75;73.63
9695;BME280;4690;52.422;13.486;2023-04-03T03:31:23;102833.66;;;1.76;73.39
9695;BME280;4690;52.422;13.486;2023-04-03T03:33:49;102836.34;;;1.76;73.26
9695;BME280;4690;52.422;13.486;2023-04-03T03:36:15;102831.28;;;1.71;73.00
9695;BME280;4690;52.422;13.486;2023-04-03T03:38:41;102831.06;;;1.74;72.92
9695;BME280;4690;52.422;13.486;2023-04-03T03:41:07;102839.91;;;1.76;73.27
9695;BME280;4690;52.422;13.486;2023-04-03T03:43:33;102845.22;;;1.78;72.68
9695;BME280;4690;52.422;13.486;2023-04-03T03:45:58;102839.06;;;1.76;73.34
9695;BME280;4690;52.422;13.486;2023-04-03T03:48:24;102839.41;;;1.71;72.80
9695;BME280;4690;52.422;13.486;2023-04-03T03:50:50;102837.59;;;1.72;73.55
9695;BME280;4690;52.422;13.486;2023-04-03T03:53:16;102839.78;;;1.67;73.02
9695;BME280;4690;52.422;13.486;2023-04-03T03:55:42;102839.03;;;1.65;73.82
9695;BME280;4690;52.422;13.486;2023-04-03T03:58:08;102832.25;;;1.59;74.12
9695;BME280;4690;52.422;13.486;2023-04-03T04:00:34;102833.34;;;1.56;73.70
9695;BME280;4690;52.422;13.486;2023-04-03T04:02:59;102830.09;;;1.51;74.90
9695;BME280;4690;52.422;13.486;2023-04-03T04:05:26;102837.25;;;1.52;74.07
9695;BME280;4690;52.422;13.486;2023-04-03T04:07:52;102841.16;;;1.48;75.00
9695;BME280;4690;52.422;13.486;2023-04-03T04:10:17;102838.91;;;1.42;75.07
9695;BME280;4690;52.422;13.486;2023-04-03T04:12:43;102835.13;;;1.45;74.43
9695;BME280;4690;52.422;13.486;2023-04-03T04:15:10;102844.09;;;1.45;74.59
9695;BME280;4690;52.422;13.486;2023-04-03T04:17:36;102833.41;;;1.44;74.50
9695;BME280;4690;52.422;13.486;2023-04-03T04:20:03;102833.50;;;1.42;74.86
9695;BME280;4690;52.422;13.486;2023-04-03T04:22:30;102838.28;;;1.39;75.04
9695;BME280;4690;52.422;13.486;2023-04-03T04:24:56;102833.00;;;1.37;75.66
9695;BME280;4690;52.422;13.486;2023-04-03T04:27:22;102836.69;;;1.36;76.05
9695;BME280;4690;52.422;13.486;2023-04-03T04:29:47;102841.63;;;1.42;75.92
9695;BME280;4690;52.422;13.486;2023-04-03T04:32:13;102849.19;;;1.37;74.77
9695;BME280;4690;52.422;13.486;2023-04-03T04:34:39;102846.50;;;1.37;75.24
9695;BME280;4690;52.422;13.486;2023-04-03T04:37:05;102850.28;;;1.34;75.94
9695;BME280;4690;52.422;13.486;2023-04-03T04:39:31;102847.94;;;1.30;75.73
9695;BME280;4690;52.422;13.486;2023-04-03T04:41:56;102837.88;;;1.32;75.41
9695;BME280;4690;52.422;13.486;2023-04-03T04:44:22;102853.66;;;1.38;75.92
9695;BME280;4690;52.422;13.486;2023-04-03T04:46:48;102851.16;;;1.35;75.61
9695;BME280;4690;52.422;13.486;2023-04-03T04:49:14;102852.25;;;1.32;75.59
9695;BME280;4690;52.422;13.486;2023-04-03T04:51:39;102856.53;;;1.35;75.46
9695;BME280;4690;52.422;13.486;2023-04-03T04:54:05;102861.63;;;1.40;76.07
9695;BME280;4690;52.422;13.486;2023-04-03T04:56:31;102865.19;;;1.40;75.35
9695;BME280;4690;52.422;13.486;2023-04-03T04:58:56;102863.47;;;1.39;75.72
9695;BME280;4690;52.422;13.486;2023-04-03T05:01:22;102865.84;;;1.44;75.99
9695;BME280;4690;52.422;13.486;2023-04-03T05:03:48;102871.22;;;1.44;75.76
9695;BME280;4690;52.422;13.486;2023-04-03T05:06:14;102869.25;;;1.46;76.17
9695;BME280;4690;52.422;13.486;2023-04-03T05:08:40;102874.09;;;1.53;75.81
9695;BME280;4690;52.422;13.486;2023-04-03T05:11:05;102869.31;;;1.57;76.11
9695;BME280;4690;52.422;13.486;2023-04-03T05:13:31;102873.53;;;1.61;76.13
9695;BME280;4690;52.422;13.486;2023-04-03T05:15:57;102865.28;;;1.63;75.26
9695;BME280;4690;52.422;13.486;2023-04-03T05:18:22;102872.19;;;1.67;75.47
9695;BME280;4690;52.422;13.486;2023-04-03T05:20:49;102870.97;;;1.71;74.53
9695;BME280;4690;52.422;13.486;2023-04-03T05:23:16;102869.78;;;1.75;74.83
9695;BME280;4690;52.422;13.486;2023-04-03T05:25:42;102871.25;;;1.79;74.75
9695;BME280;4690;52.422;13.486;2023-04-03T05:28:11;102873.00;;;1.91;75.19
9695;BME280;4690;52.422;13.486;2023-04-03T05:30:37;102888.91;;;1.96;74.70
9695;BME280;4690;52.422;13.486;2023-04-03T05:33:03;102876.66;;;2.03;75.02
9695;BME280;4690;52.422;13.486;2023-04-03T05:35:29;102877.53;;;2.15;74.25
9695;BME280;4690;52.422;13.486;2023-04-03T05:37:54;102882.72;;;2.29;73.09
9695;BME280;4690;52.422;13.486;2023-04-03T05:40:20;102887.16;;;2.30;72.98
9695;BME280;4690;52.422;13.486;2023-04-03T05:42:46;102889.63;;;2.44;72.48
9695;BME280;4690;52.422;13.486;2023-04-03T05:45:12;102888.06;;;2.76;72.15
9695;BME280;4690;52.422;13.486;2023-04-03T05:47:38;102886.34;;;2.86;70.82
9695;BME280;4690;52.422;13.486;2023-04-03T05:50:05;102898.41;;;3.04;70.01
9695;BME280;4690;52.422;13.486;2023-04-03T05:52:36;102885.94;;;3.35;68.88
9695;BME280;4690;52.422;13.486;2023-04-03T05:55:03;102897.59;;;3.79;67.41
9695;BME280;4690;52.422;13.486;2023-04-03T05:57:28;102892.81;;;4.04;66.43
9695;BME280;4690;52.422;13.486;2023-04-03T05:59:54;102901.25;;;4.43;64.06
9695;BME280;4690;52.422;13.486;2023-04-03T06:02:23;102895.78;;;4.64;62.82
9695;BME280;4690;52.422;13.486;2023-04-03T06:04:49;102896.91;;;4.92;61.65
9695;BME280;4690;52.422;13.486;2023-04-03T06:07:19;102906.25;;;4.99;60.81
9695;BME280;4690;52.422;13.486;2023-04-03T06:09:47;102900.72;;;5.20;60.63
9695;BME280;4690;52.422;13.486;2023-04-03T06:12:13;102899.75;;;5.21;60.02
9695;BME280;4690;52.422;13.486;2023-04-03T06:14:39;102898.47;;;5.35;58.77
9695;BME280;4690;52.422;13.486;2023-04-03T06:17:05;102898.25;;;5.57;58.90
9695;BME280;4690;52.422;13.486;2023-04-03T06:19:31;102903.47;;;6.09;57.58
9695;BME280;4690;52.422;13.486;2023-04-03T06:21:57;102897.88;;;6.20;54.52
9695;BME280;4690;52.422;13.486;2023-04-03T06:24:23;102906.44;;;6.35;54.87
9695;BME280;4690;52.422;13.486;2023-04-03T06:26:51;102896.06;;;6.68;54.23
9695;BME280;4690;52.422;13.486;2023-04-03T06:29:19;102896.25;;;7.49;52.41
9695;BME280;4690;52.422;13.486;2023-04-03T06:31:46;102901.59;;;8.30;49.43
9695;BME280;4690;52.422;13.486;2023-04-03T06:34:12;102903.97;;;8.69;47.12
9695;BME280;4690;52.422;13.486;2023-04-03T06:36:39;102909.31;;;8.53;46.99
9695;BME280;4690;52.422;13.486;2023-04-03T06:39:05;102913.34;;;8.05;47.96
9695;BME280;4690;52.422;13.486;2023-04-03T06:41:33;102912.50;;;7.69;47.35
9695;BME280;4690;52.422;13.486;2023-04-03T06:43:58;102910.88;;;7.48;48.14
9695;BME280;4690;52.422;13.486;2023-04-03T06:46:26;102920.38;;;7.72;47.26
9695;BME280;4690;52.422;13.486;2023-04-03T06:48:52;102910.84;;;7.94;46.52
9695;BME280;4690;52.422;13.486;2023-04-03T06:51:23;102921.34;;;8.60;45.74
9695;BME280;4690;52.422;13.486;2023-04-03T06:53:51;102918.28;;;9.32;43.45
9695;BME280;4690;52.422;13.486;2023-04-03T06:56:18;102929.56;;;9.79;42.13
9695;BME280;4690;52.422;13.486;2023-04-03T06:58:44;102932.19;;;9.97;42.16
9695;BME280;4690;52.422;13.486;2023-04-03T07:01:13;102927.59;;;10.47;39.10
9695;BME280;4690;52.422;13.486;2023-04-03T07:03:40;102929.13;;;10.41;39.83
9695;BME280;4690;52.422;13.486;2023-04-03T07:06:10;102929.31;;;10.40;39.07
9695;BME280;4690;52.422;13.486;2023-04-03T07:08:36;102934.41;;;10.75;37.95
9695;BME280;4690;52.422;13.486;2023-04-03T07:11:03;102934.25;;;10.52;38.82
9695;BME280;4690;52.422;13.486;2023-04-03T07:13:29;102944.06;;;11.19;37.80
9695;BME280;4690;52.422;13.486;2023-04-03T07:15:55;102941.28;;;12.44;35.03
9695;BME280;4690;52.422;13.486;2023-04-03T07:18:21;102939.44;;;12.59;33.50
9695;BME280;4690;52.422;13.486;2023-04-03T07:20:47;102942.09;;;12.06;34.09
9695;BME280;4690;52.422;13.486;2023-04-03T07:23:13;102947.25;;;12.70;34.27
9695;BME280;4690;52.422;13.486;2023-04-03T07:25:46;102950.16;;;12.54;33.59
9695;BME280;4690;52.422;13.486;2023-04-03T07:28:14;102945.75;;;11.99;34.54
9695;BME280;4690;52.422;13.486;2023-04-03T07:30:50;102972.84;;;10.43;36.54
9695;BME280;4690;52.422;13.486;2023-04-03T07:33:19;102950.56;;;10.54;36.92
9695;BME280;4690;52.422;13.486;2023-04-03T07:35:45;102954.50;;;10.51;37.39
9695;BME280;4690;52.422;13.486;2023-04-03T07:38:12;102966.69;;;9.74;38.05
9695;BME280;4690;52.422;13.486;2023-04-03T07:40:39;102960.09;;;8.82;39.22
9695;BME280;4690;52.422;13.486;2023-04-03T07:43:05;102958.72;;;7.43;42.59
9695;BME280;4690;52.422;13.486;2023-04-03T07:45:34;102963.34;;;7.05;43.74
9695;BME280;4690;52.422;13.486;2023-04-03T07:48:02;102971.75;;;7.21;44.43
9695;BME280;4690;52.422;13.486;2023-04-03T07:50:28;102964.06;;;6.21;44.82
9695;BME280;4690;52.422;13.486;2023-04-03T07:52:55;102972.28;;;5.61;46.84
9695;BME280;4690;52.422;13.486;2023-04-03T07:55:23;102964.28;;;5.29;47.50
9695;BME280;4690;52.422;13.486;2023-04-03T07:57:49;102976.00;;;5.29;48.59
9695;BME280;4690;52.422;13.486;2023-04-03T08:00:16;102971.41;;;5.60;48.50
9695;BME280;4690;52.422;13.486;2023-04-03T08:02:44;102971.94;;;5.54;48.35
9695;BME280;4690;52.422;13.486;2023-04-03T08:05:20;102971.94;;;5.45;47.11
9695;BME280;4690;52.422;13.486;2023-04-03T08:07:47;102972.09;;;5.53;48.36
9695;BME280;4690;52.422;13.486;2023-04-03T08:10:14;102972.81;;;6.15;47.87
9695;BME280;4690;52.422;13.486;2023-04-03T08:12:41;102970.56;;;7.33;46.29
9695;BME280;4690;52.422;13.486;2023-04-03T08:15:08;102976.22;;;8.13;43.21
9695;BME280;4690;52.422;13.486;2023-04-03T08:17:34;102967.91;;;7.14;43.37
9695;BME280;4690;52.422;13.486;2023-04-03T08:20:03;102966.38;;;7.02;44.63
9695;BME280;4690;52.422;13.486;2023-04-03T08:22:29;102971.75;;;6.74;44.48
9695;BME280;4690;52.422;13.486;2023-04-03T08:24:55;102976.69;;;6.12;46.23
9695;BME280;4690;52.422;13.486;2023-04-03T08:27:20;102958.00;;;5.88;47.61
9695;BME280;4690;52.422;13.486;2023-04-03T08:29:46;102973.19;;;5.81;47.53
9695;BME280;4690;52.422;13.486;2023-04-03T08:32:12;102969.78;;;6.08;49.38
9695;BME280;4690;52.422;13.486;2023-04-03T08:34:38;102959.38;;;6.89;47.08
9695;BME280;4690;52.422;13.486;2023-04-03T08:37:05;102966.66;;;7.63;44.15
9695;BME280;4690;52.422;13.486;2023-04-03T08:39:31;102973.28;;;6.96;44.28
9695;BME280;4690;52.422;13.486;2023-04-03T08:42:03;102973.50;;;6.46;45.37
9695;BME280;4690;52.422;13.486;2023-04-03T08:45:01;102971.19;;;5.93;46.78
9695;BME280;4690;52.422;13.486;2023-04-03T08:47:40;102960.63;;;6.19;47.40
9695;BME280;4690;52.422;13.486;2023-04-03T08:50:30;102948.50;;;6.70;45.14
9695;BME280;4690;52.422;13.486;2023-04-03T08:53:00;102956.38;;;7.20;45.99
9695;BME280;4690;52.422;13.486;2023-04-03T08:56:03;102955.38;;;7.76;43.20
9695;BME280;4690;52.422;13.486;2023-04-03T08:59:19;102955.63;;;8.01;42.47
9695;BME280;4690;52.422;13.486;2023-04-03T09:01:38;102949.44;;;8.70;41.69
9695;BME280;4690;52.422;13.486;2023-04-03T09:04:16;102952.91;;;9.07;39.03
9695;BME280;4690;52.422;13.486;2023-04-03T09:06:53;102952.63;;;9.18;37.29
9695;BME280;4690;52.422;13.486;2023-04-03T09:09:40;102947.84;;;8.06;39.66
9695;BME280;4690;52.422;13.486;2023-04-03T09:12:21;102951.06;;;7.56;40.60
9695;BME280;4690;52.422;13.486;2023-04-03T09:15:12;102942.81;;;7.10;43.19
9695;BME280;4690;52.422;13.486;2023-04-03T09:18:05;102950.72;;;7.04;44.04
9695;BME280;4690;52.422;13.486;2023-04-03T09:20:46;102945.44;;;7.02;43.10
9695;BME280;4690;52.422;13.486;2023-04-03T09:23:52;102958.97;;;6.74;42.87
9695;BME280;4690;52.422;13.486;2023-04-03T09:26:19;102952.00;;;6.33;45.30
9695;BME280;4690;52.422;13.486;2023-04-03T09:28:47;102963.63;;;6.45;44.33
9695;BME280;4690;52.422;13.486;2023-04-03T09:31:23;102962.19;;;6.50;45.48
9695;BME280;4690;52.422;13.486;2023-04-03T09:34:03;102967.41;;;6.91;43.90
9695;BME280;4690;52.422;13.486;2023-04-03T09:36:53;102961.72;;;7.22;42.90
9695;BME280;4690;52.422;13.486;2023-04-03T09:39:25;102951.03;;;7.83;40.91
9695;BME280;4690;52.422;13.486;2023-04-03T09:44:37;102951.88;;;8.02;37.10
9695;BME280;4690;52.422;13.486;2023-04-03T09:47:26;102954.81;;;7.55;37.69
9695;BME280;4690;52.422;13.486;2023-04-03T09:52:38;102950.50;;;8.34;38.79
9695;BME280;4690;52.422;13.486;2023-04-03T09:55:15;102950.66;;;9.02;36.19
9695;BME280;4690;52.422;13.486;2023-04-03T09:57:42;102940.00;;;8.91;36.06
9695;BME280;4690;52.422;13.486;2023-04-03T10:00:30;102942.34;;;7.70;38.27
9695;BME280;4690;52.422;13.486;2023-04-03T10:02:58;102951.25;;;7.72;38.74
9695;BME280;4690;52.422;13.486;2023-04-03T10:05:40;102947.31;;;6.92;39.75
9695;BME280;4690;52.422;13.486;2023-04-03T10:10:45;102942.44;;;7.78;38.49
9695;BME280;4690;52.422;13.486;2023-04-03T10:13:20;102933.00;;;7.45;39.67
9695;BME280;4690;52.422;13.486;2023-04-03T10:16:03;102936.47;;;7.47;39.72
9695;BME280;4690;52.422;13.486;2023-04-03T10:19:05;102931.53;;;7.23;40.67
9695;BME280;4690;52.422;13.486;2023-04-03T10:21:54;102936.63;;;7.18;42.47
9695;BME280;4690;52.422;13.486;2023-04-03T10:24:25;102931.06;;;7.10;41.67
9695;BME280;4690;52.422;13.486;2023-04-03T10:38:08;102921.31;;;6.97;41.79
9695;BME280;4690;52.422;13.486;2023-04-03T10:40:46;102922.28;;;7.06;42.29
9695;BME280;4690;52.422;13.486;2023-04-03T10:43:43;102921.53;;;7.87;43.36
9695;BME280;4690;52.422;13.486;2023-04-03T10:46:38;102917.47;;;8.27;38.29
9695;BME280;4690;52.422;13.486;2023-04-03T10:52:36;102912.25;;;8.16;39.63
9695;BME280;4690;52.422;13.486;2023-04-03T10:58:04;102914.13;;;7.61;42.17
9695;BME280;4690;52.422;13.486;2023-04-03T11:00:48;102905.84;;;7.53;41.67
9695;BME280;4690;52.422;13.486;2023-04-03T11:03:43;102913.19;;;7.25;42.68
9695;BME280;4690;52.422;13.486;2023-04-03T11:06:14;102899.19;;;7.38;41.47
9695;BME280;4690;52.422;13.486;2023-04-03T11:09:07;102900.09;;;7.29;41.75
9695;BME280;4690;52.422;13.486;2023-04-03T11:11:39;102900.78;;;7.58;41.02
9695;BME280;4690;52.422;13.486;2023-04-03T11:14:34;102892.47;;;7.78;41.98
9695;BME280;4690;52.422;13.486;2023-04-03T11:17:19;102889.41;;;7.81;39.84
9695;BME280;4690;52.422;13.486;2023-04-03T11:20:25;102895.41;;;7.21;42.43
9695;BME280;4690;52.422;13.486;2023-04-03T11:23:26;102901.50;;;7.05;43.13
9695;BME280;4690;52.422;13.486;2023-04-03T11:26:10;102903.28;;;7.24;44.16
9695;BME280;4690;52.422;13.486;2023-04-03T11:28:37;102892.94;;;7.28;44.43
9695;BME280;4690;52.422;13.486;2023-04-03T11:34:38;102892.41;;;7.60;43.21
9695;BME280;4690;52.422;13.486;2023-04-03T11:37:25;102896.78;;;7.35;43.72
9695;BME280;4690;52.422;13.486;2023-04-03T11:40:06;102898.69;;;7.25;44.74
9695;BME280;4690;52.422;13.486;2023-04-03T11:42:39;102888.69;;;7.15;43.92
9695;BME280;4690;52.422;13.486;2023-04-03T11:45:34;102896.38;;;6.92;44.35
9695;BME280;4690;52.422;13.486;2023-04-03T11:48:05;102891.44;;;7.15;44.05
9695;BME280;4690;52.422;13.486;2023-04-03T11:50:39;102896.38;;;7.30;44.63
9695;BME280;4690;52.422;13.486;2023-04-03T12:24:52;102877.53;;;7.90;42.96
9695;BME280;4690;52.422;13.486;2023-04-03T12:27:38;102883.41;;;7.77;43.23
9695;BME280;4690;52.422;13.486;2023-04-03T12:30:26;102868.53;;;7.72;43.11
9695;BME280;4690;52.422;13.486;2023-04-03T12:33:12;102873.19;;;7.61;43.07
9695;BME280;4690;52.422;13.486;2023-04-03T12:35:58;102870.47;;;7.16;42.88
9695;BME280;4690;52.422;13.486;2023-04-03T12:39:01;102860.28;;;7.18;43.44
9695;BME280;4690;52.422;13.486;2023-04-03T12:42:01;102861.66;;;7.22;41.62
9695;BME280;4690;52.422;13.486;2023-04-03T12:44:43;102867.34;;;7.29;42.03
9695;BME280;4690;52.422;13.486;2023-04-03T12:47:42;102856.03;;;7.69;40.12
9695;BME280;4690;52.422;13.486;2023-04-03T12:50:30;102850.50;;;7.79;39.62
9695;BME280;4690;52.422;13.486;2023-04-03T12:53:05;102849.41;;;7.72;40.41
9695;BME280;4690;52.422;13.486;2023-04-03T12:55:32;102846.41;;;8.01;40.08
9695;BME280;4690;52.422;13.486;2023-04-03T12:58:24;102844.47;;;8.11;39.85
9695;BME280;4690;52.422;13.486;2023-04-03T13:01:23;102852.56;;;8.21;40.64
9695;BME280;4690;52.422;13.486;2023-04-03T13:03:58;102851.59;;;7.50;40.48
9695;BME280;4690;52.422;13.486;2023-04-03T13:06:39;102854.38;;;7.40;41.79
9695;BME280;4690;52.422;13.486;2023-04-03T13:09:19;102854.09;;;7.44;42.70
9695;BME280;4690;52.422;13.486;2023-04-03T13:11:50;102848.47;;;7.63;41.36
9695;BME280;4690;52.422;13.486;2023-04-03T13:14:22;102842.13;;;7.27;41.45
9695;BME280;4690;52.422;13.486;2023-04-03T13:17:04;102850.56;;;7.51;43.31
9695;BME280;4690;52.422;13.486;2023-04-03T13:19:31;102845.19;;;7.41;40.99
9695;BME280;4690;52.422;13.486;2023-04-03T13:22:29;102839.28;;;7.46;41.48
9695;BME280;4690;52.422;13.486;2023-04-03T13:25:05;102849.50;;;7.80;42.96
9695;BME280;4690;52.422;13.486;2023-04-03T13:27:32;102843.63;;;7.93;42.30
9695;BME280;4690;52.422;13.486;2023-04-03T13:30:02;102848.06;;;8.12;42.37
9695;BME280;4690;52.422;13.486;2023-04-03T13:32:30;102826.28;;;8.20;42.71
9695;BME280;4690;52.422;13.486;2023-04-03T13:34:57;102835.00;;;8.49;42.12
9695;BME280;4690;52.422;13.486;2023-04-03T13:37:31;102819.03;;;8.63;39.81
9695;BME280;4690;52.422;13.486;2023-04-03T13:40:12;102826.25;;;8.72;40.12
9695;BME280;4690;52.422;13.486;2023-04-03T13:42:41;102826.81;;;8.84;40.30
9695;BME280;4690;52.422;13.486;2023-04-03T13:47:43;102824.72;;;8.17;41.96
9695;BME280;4690;52.422;13.486;2023-04-03T13:53:02;102821.66;;;7.58;42.59
9695;BME280;4690;52.422;13.486;2023-04-03T13:56:06;102826.22;;;7.40;43.98
9695;BME280;4690;52.422;13.486;2023-04-03T13:58:34;102818.97;;;7.31;44.25
9695;BME280;4690;52.422;13.486;2023-04-03T14:01:17;102819.28;;;7.46;44.33
9695;BME280;4690;52.422;13.486;2023-04-03T14:06:15;102824.38;;;7.40;44.13
9695;BME280;4690;52.422;13.486;2023-04-03T14:08:43;102819.41;;;7.72;44.28
9695;BME280;4690;52.422;13.486;2023-04-03T14:11:16;102812.53;;;7.85;43.40
9695;BME280;4690;52.422;13.486;2023-04-03T14:13:44;102818.94;;;8.02;43.79
9695;BME280;4690;52.422;13.486;2023-04-03T14:16:24;102821.41;;;7.88;43.80
9695;BME280;4690;52.422;13.486;2023-04-03T14:18:51;102817.56;;;8.42;43.59
9695;BME280;4690;52.422;13.486;2023-04-03T14:21:19;102809.81;;;8.64;41.91
9695;BME280;4690;52.422;13.486;2023-04-03T14:23:46;102796.84;;;8.14;43.08
9695;BME280;4690;52.422;13.486;2023-04-03T14:26:17;102802.22;;;7.79;44.03
9695;BME280;4690;52.422;13.486;2023-04-03T14:28:50;102806.97;;;8.21;44.37
9695;BME280;4690;52.422;13.486;2023-04-03T14:31:18;102803.50;;;8.63;43.42
9695;BME280;4690;52.422;13.486;2023-04-03T14:33:45;102808.72;;;8.83;42.42
9695;BME280;4690;52.422;13.486;2023-04-03T14:36:21;102811.69;;;8.63;43.18
9695;BME280;4690;52.422;13.486;2023-04-03T14:38:49;102802.91;;;8.25;42.76
9695;BME280;4690;52.422;13.486;2023-04-03T14:41:19;102800.28;;;8.42;42.93
9695;BME280;4690;52.422;13.486;2023-04-03T14:43:47;102800.34;;;8.50;42.69